PWSweather.com
Personal Weather Stations
Station Observations
KJ4AJP
Beautiful Downtown Gardner, Martin, TN 38237

Beautiful Downtown GardnerMartin, TN 38237

Lat: 36.358, Lon: -88.8994

Elevation: 384.3

Station Type: TP1080WC

http://weather.mambm.com/

High Low Average
Temperature 96.1°F35.6°C 75.2°F24.0°C 85.0°F29.4°C
Dew Point 86.5°F30.3°C 75.0°F23.9°C 81.2°F27.3°C
Winds 7.6 mph 12.2 kmh Calm Calm 2.0 mph S3.2 kmh S
Wind Gusts 11.4 mph18.3 kmh -- 5.0 mph8.0 kmh
Humidity 99% 69% 89%
Pressure 29.96 in1014.6 mb 29.84 in1010.5 mb -
Precipitation 0.00 in0.0 mm - -
Hour Temp Dew Point Humidity Winds Wind Gusts Pressure Precip Precip Rate Daily Precip Total
12:00 AM 78.4°F25.8°C 78.2°F25.7°C 99% Calm Calm -- 29.91 in1012.9 mb 0.00 in0.0 mm 0.00 in0.0 mm 0.00 in0.0 mm
12:15 AM 78.1°F25.6°C 77.8°F25.4°C 99% Calm Calm -- 29.91 in1012.9 mb 0.00 in0.0 mm 0.00 in0.0 mm 0.00 in0.0 mm
12:30 AM 77.9°F25.5°C 77.7°F25.4°C 99% Calm Calm 1.6 mph2.6 kmh 29.91 in1012.9 mb 0.00 in0.0 mm 0.00 in0.0 mm 0.00 in0.0 mm
12:45 AM 77.9°F25.5°C 77.7°F25.4°C 99% 0.7 mph SW1.1 kmh SW 1.6 mph2.6 kmh 29.90 in1012.5 mb 0.00 in0.0 mm 0.00 in0.0 mm 0.00 in0.0 mm
01:00 AM 84.6°F29.2°C 84.3°F29.1°C 99% 1.6 mph E2.6 kmh E 3.1 mph5.0 kmh 29.89 in1012.2 mb 0.00 in0.0 mm 0.00 in0.0 mm 0.00 in0.0 mm
01:15 AM 77.5°F25.3°C 77.3°F25.2°C 99% 1.6 mph ESE2.6 kmh ESE 3.1 mph5.0 kmh 29.89 in1012.2 mb 0.00 in0.0 mm 0.00 in0.0 mm 0.00 in0.0 mm
01:30 AM 77.4°F25.2°C 77.1°F25.1°C 99% Calm Calm 2.2 mph3.5 kmh 29.89 in1012.2 mb 0.00 in0.0 mm 0.00 in0.0 mm 0.00 in0.0 mm
01:45 AM 77.2°F25.1°C 76.9°F24.9°C 99% 0.7 mph SSE1.1 kmh SSE 1.6 mph2.6 kmh 29.90 in1012.5 mb 0.00 in0.0 mm 0.00 in0.0 mm 0.00 in0.0 mm
02:00 AM 77.0°F25.0°C 76.8°F24.9°C 99% Calm Calm 2.2 mph3.5 kmh 29.89 in1012.2 mb 0.00 in0.0 mm 0.00 in0.0 mm 0.00 in0.0 mm
02:15 AM 76.8°F24.9°C 76.6°F24.8°C 99% Calm Calm -- 29.89 in1012.2 mb 0.00 in0.0 mm 0.00 in0.0 mm 0.00 in0.0 mm
02:30 AM 76.6°F24.8°C 76.4°F24.7°C 99% 0.7 mph ESE1.1 kmh ESE 3.1 mph5.0 kmh 29.89 in1012.2 mb 0.00 in0.0 mm 0.00 in0.0 mm 0.00 in0.0 mm
02:45 AM 76.5°F24.7°C 76.2°F24.6°C 99% 1.6 mph SE2.6 kmh SE 2.2 mph3.5 kmh 29.89 in1012.2 mb 0.00 in0.0 mm 0.00 in0.0 mm 0.00 in0.0 mm
03:00 AM 76.5°F24.7°C 76.2°F24.6°C 99% Calm Calm 1.6 mph2.6 kmh 29.90 in1012.5 mb 0.00 in0.0 mm 0.00 in0.0 mm 0.00 in0.0 mm
03:15 AM 76.1°F24.5°C 75.9°F24.4°C 99% Calm Calm 2.2 mph3.5 kmh 29.90 in1012.5 mb 0.00 in0.0 mm 0.00 in0.0 mm 0.00 in0.0 mm
03:30 AM 75.9°F24.4°C 75.7°F24.3°C 99% 0.7 mph SE1.1 kmh SE 2.2 mph3.5 kmh 29.90 in1012.5 mb 0.00 in0.0 mm 0.00 in0.0 mm 0.00 in0.0 mm
03:45 AM 75.9°F24.4°C 75.7°F24.3°C 99% Calm Calm 2.2 mph3.5 kmh 29.90 in1012.5 mb 0.00 in0.0 mm 0.00 in0.0 mm 0.00 in0.0 mm
04:00 AM 75.9°F24.4°C 75.7°F24.3°C 99% 0.7 mph SE1.1 kmh SE 2.2 mph3.5 kmh 29.91 in1012.9 mb 0.00 in0.0 mm 0.00 in0.0 mm 0.00 in0.0 mm
04:15 AM 75.9°F24.4°C 75.7°F24.3°C 99% Calm Calm 1.6 mph2.6 kmh 29.91 in1012.9 mb 0.00 in0.0 mm 0.00 in0.0 mm 0.00 in0.0 mm
04:30 AM 75.7°F24.3°C 75.5°F24.2°C 99% Calm Calm 2.2 mph3.5 kmh 29.92 in1013.2 mb 0.00 in0.0 mm 0.00 in0.0 mm 0.00 in0.0 mm
04:45 AM 75.6°F24.2°C 75.3°F24.1°C 99% Calm Calm 1.6 mph2.6 kmh 29.92 in1013.2 mb 0.00 in0.0 mm 0.00 in0.0 mm 0.00 in0.0 mm
05:00 AM 75.4°F24.1°C 75.1°F23.9°C 99% 0.7 mph E1.1 kmh E 1.6 mph2.6 kmh 29.93 in1013.5 mb 0.00 in0.0 mm 0.00 in0.0 mm 0.00 in0.0 mm
05:15 AM 75.4°F24.1°C 75.1°F23.9°C 99% Calm Calm 2.2 mph3.5 kmh 29.93 in1013.5 mb 0.00 in0.0 mm 0.00 in0.0 mm 0.00 in0.0 mm
05:30 AM 75.2°F24.0°C 75.0°F23.9°C 99% Calm Calm 2.2 mph3.5 kmh 29.93 in1013.5 mb 0.00 in0.0 mm 0.00 in0.0 mm 0.00 in0.0 mm
05:45 AM 75.2°F24.0°C 75.0°F23.9°C 99% 0.7 mph SE1.1 kmh SE 2.2 mph3.5 kmh 29.93 in1013.5 mb 0.00 in0.0 mm 0.00 in0.0 mm 0.00 in0.0 mm
06:00 AM 75.2°F24.0°C 75.0°F23.9°C 99% Calm Calm 2.2 mph3.5 kmh 29.93 in1013.5 mb 0.00 in0.0 mm 0.00 in0.0 mm 0.00 in0.0 mm
06:15 AM 75.2°F24.0°C 75.0°F23.9°C 99% 1.6 mph SSE2.6 kmh SSE 3.1 mph5.0 kmh 29.93 in1013.5 mb 0.00 in0.0 mm 0.00 in0.0 mm 0.00 in0.0 mm
06:30 AM 75.2°F24.0°C 75.0°F23.9°C 99% 0.7 mph SE1.1 kmh SE 3.1 mph5.0 kmh 29.93 in1013.5 mb 0.00 in0.0 mm 0.00 in0.0 mm 0.00 in0.0 mm
06:45 AM 75.4°F24.1°C 75.1°F23.9°C 99% 0.7 mph SE1.1 kmh SE 2.2 mph3.5 kmh 29.94 in1013.9 mb 0.00 in0.0 mm 0.00 in0.0 mm 0.00 in0.0 mm
07:00 AM 75.7°F24.3°C 75.5°F24.2°C 99% 1.6 mph SSE2.6 kmh SSE 4.5 mph7.2 kmh 29.95 in1014.2 mb 0.00 in0.0 mm 0.00 in0.0 mm 0.00 in0.0 mm
07:15 AM 76.5°F24.7°C 76.2°F24.6°C 99% 0.7 mph SSE1.1 kmh SSE 3.1 mph5.0 kmh 29.94 in1013.9 mb 0.00 in0.0 mm 0.00 in0.0 mm 0.00 in0.0 mm
07:30 AM 77.4°F25.2°C 77.1°F25.1°C 99% 3.1 mph SSE5.0 kmh SSE 6.0 mph9.7 kmh 29.95 in1014.2 mb 0.00 in0.0 mm 0.00 in0.0 mm 0.00 in0.0 mm
07:45 AM 78.3°F25.7°C 78.0°F25.6°C 99% 2.2 mph S3.5 kmh S 5.4 mph8.7 kmh 29.95 in1014.2 mb 0.00 in0.0 mm 0.00 in0.0 mm 0.00 in0.0 mm
08:00 AM 79.0°F26.1°C 78.7°F25.9°C 99% 3.1 mph SSW5.0 kmh SSW 6.0 mph9.7 kmh 29.95 in1014.2 mb 0.00 in0.0 mm 0.00 in0.0 mm 0.00 in0.0 mm
08:15 AM 79.9°F26.6°C 79.6°F26.4°C 99% 0.7 mph SE1.1 kmh SE 4.5 mph7.2 kmh 29.95 in1014.2 mb 0.00 in0.0 mm 0.00 in0.0 mm 0.00 in0.0 mm
08:30 AM 80.8°F27.1°C 80.5°F26.9°C 99% 0.7 mph SE1.1 kmh SE 6.0 mph9.7 kmh 29.95 in1014.2 mb 0.00 in0.0 mm 0.00 in0.0 mm 0.00 in0.0 mm
08:45 AM 81.7°F27.6°C 81.5°F27.5°C 99% 1.6 mph S2.6 kmh S 5.4 mph8.7 kmh 29.96 in1014.6 mb 0.00 in0.0 mm 0.00 in0.0 mm 0.00 in0.0 mm
09:00 AM 82.8°F28.2°C 81.9°F27.7°C 97% 3.1 mph S5.0 kmh S 5.4 mph8.7 kmh 29.96 in1014.6 mb 0.00 in0.0 mm 0.00 in0.0 mm 0.00 in0.0 mm
09:15 AM 83.7°F28.7°C 82.2°F27.9°C 95% 1.6 mph S2.6 kmh S 6.9 mph11.1 kmh 29.96 in1014.6 mb 0.00 in0.0 mm 0.00 in0.0 mm 0.00 in0.0 mm
09:30 AM 85.8°F29.9°C 83.6°F28.7°C 93% 2.2 mph S3.5 kmh S 6.0 mph9.7 kmh 29.95 in1014.2 mb 0.00 in0.0 mm 0.00 in0.0 mm 0.00 in0.0 mm
09:45 AM 87.6°F30.9°C 84.4°F29.1°C 90% 3.1 mph S5.0 kmh S 5.4 mph8.7 kmh 29.96 in1014.6 mb 0.00 in0.0 mm 0.00 in0.0 mm 0.00 in0.0 mm
10:00 AM 88.7°F31.5°C 84.4°F29.1°C 87% 3.8 mph SW6.1 kmh SW 7.6 mph12.2 kmh 29.95 in1014.2 mb 0.00 in0.0 mm 0.00 in0.0 mm 0.00 in0.0 mm
10:15 AM 89.6°F32.0°C 85.3°F29.6°C 87% 1.6 mph S2.6 kmh S 6.9 mph11.1 kmh 29.95 in1014.2 mb 0.00 in0.0 mm 0.00 in0.0 mm 0.00 in0.0 mm
10:30 AM 90.5°F32.5°C 85.5°F29.7°C 85% 2.2 mph S3.5 kmh S 6.0 mph9.7 kmh 29.95 in1014.2 mb 0.00 in0.0 mm 0.00 in0.0 mm 0.00 in0.0 mm
10:45 AM 91.4°F33.0°C 85.6°F29.8°C 83% 3.8 mph SSE6.1 kmh SSE 7.6 mph12.2 kmh 29.95 in1014.2 mb 0.00 in0.0 mm 0.00 in0.0 mm 0.00 in0.0 mm
11:00 AM 91.9°F33.3°C 85.8°F29.9°C 82% 5.4 mph S8.7 kmh S 8.3 mph13.4 kmh 29.95 in1014.2 mb 0.00 in0.0 mm 0.00 in0.0 mm 0.00 in0.0 mm
11:15 AM 92.3°F33.5°C 85.7°F29.8°C 81% 2.2 mph SSW3.5 kmh SSW 8.3 mph13.4 kmh 29.95 in1014.2 mb 0.00 in0.0 mm 0.00 in0.0 mm 0.00 in0.0 mm
11:30 AM 92.3°F33.5°C 85.7°F29.8°C 81% 3.1 mph S5.0 kmh S 8.3 mph13.4 kmh 29.94 in1013.9 mb 0.00 in0.0 mm 0.00 in0.0 mm 0.00 in0.0 mm
11:45 AM 92.5°F33.6°C 85.5°F29.7°C 80% 3.8 mph S6.1 kmh S 9.2 mph14.8 kmh 29.94 in1013.9 mb 0.00 in0.0 mm 0.00 in0.0 mm 0.00 in0.0 mm
12:00 PM 92.5°F33.6°C 85.5°F29.7°C 80% 3.1 mph S5.0 kmh S 8.3 mph13.4 kmh 29.93 in1013.5 mb 0.00 in0.0 mm 0.00 in0.0 mm 0.00 in0.0 mm
12:15 PM 93.2°F34.0°C 85.0°F29.4°C 77% 3.8 mph S6.1 kmh S 11.4 mph18.3 kmh 29.92 in1013.2 mb 0.00 in0.0 mm 0.00 in0.0 mm 0.00 in0.0 mm
12:30 PM 93.2°F34.0°C 85.4°F29.7°C 78% 2.2 mph SSE3.5 kmh SSE 8.3 mph13.4 kmh 29.93 in1013.5 mb 0.00 in0.0 mm 0.00 in0.0 mm 0.00 in0.0 mm
12:45 PM 93.4°F34.1°C 85.6°F29.8°C 78% 3.1 mph SSW5.0 kmh SSW 6.9 mph11.1 kmh 29.92 in1013.2 mb 0.00 in0.0 mm 0.00 in0.0 mm 0.00 in0.0 mm
01:00 PM 93.9°F34.4°C 85.7°F29.8°C 77% 3.1 mph SW5.0 kmh SW 9.2 mph14.8 kmh 29.92 in1013.2 mb 0.00 in0.0 mm 0.00 in0.0 mm 0.00 in0.0 mm
01:15 PM 94.3°F34.6°C 85.2°F29.6°C 75% 3.1 mph SW5.0 kmh SW 8.3 mph13.4 kmh 29.91 in1012.9 mb 0.00 in0.0 mm 0.00 in0.0 mm 0.00 in0.0 mm
01:30 PM 94.6°F34.8°C 85.6°F29.8°C 75% 3.8 mph SW6.1 kmh SW 7.6 mph12.2 kmh 29.92 in1013.2 mb 0.00 in0.0 mm 0.00 in0.0 mm 0.00 in0.0 mm
01:45 PM 95.2°F35.1°C 86.5°F30.3°C 76% 3.1 mph S5.0 kmh S 9.2 mph14.8 kmh 29.91 in1012.9 mb 0.00 in0.0 mm 0.00 in0.0 mm 0.00 in0.0 mm
02:00 PM 95.0°F35.0°C 85.5°F29.7°C 74% 3.8 mph S6.1 kmh S 7.6 mph12.2 kmh 29.91 in1012.9 mb 0.00 in0.0 mm 0.00 in0.0 mm 0.00 in0.0 mm
02:15 PM 95.0°F35.0°C 85.5°F29.7°C 74% 2.2 mph SW3.5 kmh SW 10.7 mph17.2 kmh 29.91 in1012.9 mb 0.00 in0.0 mm 0.00 in0.0 mm 0.00 in0.0 mm
02:30 PM 94.6°F34.8°C 84.7°F29.3°C 73% 3.1 mph S5.0 kmh S 9.2 mph14.8 kmh 29.91 in1012.9 mb 0.00 in0.0 mm 0.00 in0.0 mm 0.00 in0.0 mm
02:45 PM 94.8°F34.9°C 85.3°F29.6°C 74% 4.5 mph SSW7.2 kmh SSW 7.6 mph12.2 kmh 29.91 in1012.9 mb 0.00 in0.0 mm 0.00 in0.0 mm 0.00 in0.0 mm
03:00 PM 95.4°F35.2°C 86.3°F30.2°C 75% 0.7 mph S1.1 kmh S 6.9 mph11.1 kmh 29.91 in1012.9 mb 0.00 in0.0 mm 0.00 in0.0 mm 0.00 in0.0 mm
03:15 PM 95.7°F35.4°C 84.5°F29.2°C 70% 7.6 mph SSW12.2 kmh SSW 9.8 mph15.8 kmh 29.89 in1012.2 mb 0.00 in0.0 mm 0.00 in0.0 mm 0.00 in0.0 mm
03:30 PM 96.1°F35.6°C 84.8°F29.3°C 70% 6.0 mph SSW9.7 kmh SSW 9.2 mph14.8 kmh 29.90 in1012.5 mb 0.00 in0.0 mm 0.00 in0.0 mm 0.00 in0.0 mm
03:45 PM 95.7°F35.4°C 84.0°F28.9°C 69% 3.8 mph SSW6.1 kmh SSW 9.8 mph15.8 kmh 29.88 in1011.9 mb 0.00 in0.0 mm 0.00 in0.0 mm 0.00 in0.0 mm
04:00 PM 95.7°F35.4°C 84.5°F29.2°C 70% 3.8 mph SSE6.1 kmh SSE 8.3 mph13.4 kmh 29.88 in1011.9 mb 0.00 in0.0 mm 0.00 in0.0 mm 0.00 in0.0 mm
04:15 PM 95.9°F35.5°C 85.1°F29.5°C 71% 3.1 mph S5.0 kmh S 11.4 mph18.3 kmh 29.87 in1011.5 mb 0.00 in0.0 mm 0.00 in0.0 mm 0.00 in0.0 mm
04:30 PM 95.7°F35.4°C 84.9°F29.4°C 71% 3.1 mph S5.0 kmh S 8.3 mph13.4 kmh 29.87 in1011.5 mb 0.00 in0.0 mm 0.00 in0.0 mm 0.00 in0.0 mm
04:45 PM 95.9°F35.5°C 85.5°F29.7°C 72% 3.1 mph S5.0 kmh S 8.3 mph13.4 kmh 29.86 in1011.2 mb 0.00 in0.0 mm 0.00 in0.0 mm 0.00 in0.0 mm
05:00 PM 95.9°F35.5°C 86.0°F30.0°C 73% 2.2 mph S3.5 kmh S 6.9 mph11.1 kmh 29.86 in1011.2 mb 0.00 in0.0 mm 0.00 in0.0 mm 0.00 in0.0 mm
05:15 PM 95.4°F35.2°C 85.0°F29.4°C 72% 3.1 mph SSE5.0 kmh SSE 9.2 mph14.8 kmh 29.85 in1010.8 mb 0.00 in0.0 mm 0.00 in0.0 mm 0.00 in0.0 mm
05:30 PM 94.5°F34.7°C 84.6°F29.2°C 73% 3.8 mph S6.1 kmh S 6.9 mph11.1 kmh 29.85 in1010.8 mb 0.00 in0.0 mm 0.00 in0.0 mm 0.00 in0.0 mm
05:45 PM 93.4°F34.1°C 83.9°F28.8°C 74% 3.8 mph S6.1 kmh S 7.6 mph12.2 kmh 29.85 in1010.8 mb 0.00 in0.0 mm 0.00 in0.0 mm 0.00 in0.0 mm
06:00 PM 92.5°F33.6°C 83.9°F28.8°C 76% 3.8 mph SSW6.1 kmh SSW 8.3 mph13.4 kmh 29.84 in1010.5 mb 0.00 in0.0 mm 0.00 in0.0 mm 0.00 in0.0 mm
06:15 PM 91.8°F33.2°C 84.0°F28.9°C 78% 0.7 mph SSW1.1 kmh SSW 5.4 mph8.7 kmh 29.84 in1010.5 mb 0.00 in0.0 mm 0.00 in0.0 mm 0.00 in0.0 mm
06:30 PM 91.2°F32.9°C 83.5°F28.6°C 78% 3.1 mph S5.0 kmh S 6.0 mph9.7 kmh 29.84 in1010.5 mb 0.00 in0.0 mm 0.00 in0.0 mm 0.00 in0.0 mm
06:45 PM 90.7°F32.6°C 83.8°F28.8°C 80% 0.7 mph SSW1.1 kmh SSW 4.5 mph7.2 kmh 29.84 in1010.5 mb 0.00 in0.0 mm 0.00 in0.0 mm 0.00 in0.0 mm
07:00 PM 90.1°F32.3°C 83.6°F28.7°C 81% 1.6 mph S2.6 kmh S 4.5 mph7.2 kmh 29.86 in1011.2 mb 0.00 in0.0 mm 0.00 in0.0 mm 0.00 in0.0 mm
07:15 PM 89.6°F32.0°C 83.8°F28.8°C 83% Calm Calm 3.8 mph6.1 kmh 29.85 in1010.8 mb 0.00 in0.0 mm 0.00 in0.0 mm 0.00 in0.0 mm
07:30 PM 88.9°F31.6°C 83.5°F28.6°C 84% Calm Calm 3.8 mph6.1 kmh 29.86 in1011.2 mb 0.00 in0.0 mm 0.00 in0.0 mm 0.00 in0.0 mm
07:45 PM 88.2°F31.2°C 83.5°F28.6°C 86% 0.7 mph S1.1 kmh S 2.2 mph3.5 kmh 29.87 in1011.5 mb 0.00 in0.0 mm 0.00 in0.0 mm 0.00 in0.0 mm
08:00 PM 87.1°F30.6°C 83.2°F28.4°C 88% Calm Calm 2.2 mph3.5 kmh 29.88 in1011.9 mb 0.00 in0.0 mm 0.00 in0.0 mm 0.00 in0.0 mm
08:15 PM 86.2°F30.1°C 83.0°F28.3°C 90% Calm Calm 2.2 mph3.5 kmh 29.88 in1011.9 mb 0.00 in0.0 mm 0.00 in0.0 mm 0.00 in0.0 mm
08:30 PM 85.1°F29.5°C 82.3°F27.9°C 91% Calm Calm 2.2 mph3.5 kmh 29.88 in1011.9 mb 0.00 in0.0 mm 0.00 in0.0 mm 0.00 in0.0 mm
08:45 PM 84.2°F29.0°C 81.7°F27.6°C 92% Calm Calm 1.6 mph2.6 kmh 29.88 in1011.9 mb 0.00 in0.0 mm 0.00 in0.0 mm 0.00 in0.0 mm
09:00 PM 83.3°F28.5°C 81.1°F27.3°C 93% Calm Calm 1.6 mph2.6 kmh 29.89 in1012.2 mb 0.00 in0.0 mm 0.00 in0.0 mm 0.00 in0.0 mm
09:15 PM 82.6°F28.1°C 80.8°F27.1°C 94% Calm Calm 0.7 mph1.1 kmh 29.89 in1012.2 mb 0.00 in0.0 mm 0.00 in0.0 mm 0.00 in0.0 mm
09:30 PM 82.0°F27.8°C 80.5°F26.9°C 95% Calm Calm 0.7 mph1.1 kmh 29.89 in1012.2 mb 0.00 in0.0 mm 0.00 in0.0 mm 0.00 in0.0 mm
09:45 PM 81.7°F27.6°C 80.5°F26.9°C 96% Calm Calm 1.6 mph2.6 kmh 29.91 in1012.9 mb 0.00 in0.0 mm 0.00 in0.0 mm 0.00 in0.0 mm
10:00 PM 81.3°F27.4°C 80.5°F26.9°C 97% Calm Calm 0.7 mph1.1 kmh 29.91 in1012.9 mb 0.00 in0.0 mm 0.00 in0.0 mm 0.00 in0.0 mm
10:15 PM 81.1°F27.3°C 80.3°F26.8°C 97% Calm Calm 0.7 mph1.1 kmh 29.91 in1012.9 mb 0.00 in0.0 mm 0.00 in0.0 mm 0.00 in0.0 mm
10:30 PM 80.8°F27.1°C 80.2°F26.8°C 98% Calm Calm 1.6 mph2.6 kmh 29.92 in1013.2 mb 0.00 in0.0 mm 0.00 in0.0 mm 0.00 in0.0 mm
10:45 PM 80.4°F26.9°C 79.9°F26.6°C 98% Calm Calm 1.6 mph2.6 kmh 29.92 in1013.2 mb 0.00 in0.0 mm 0.00 in0.0 mm 0.00 in0.0 mm
11:00 PM 80.2°F26.8°C 80.0°F26.7°C 99% Calm Calm 0.7 mph1.1 kmh 29.92 in1013.2 mb 0.00 in0.0 mm 0.00 in0.0 mm 0.00 in0.0 mm
11:15 PM 80.1°F26.7°C 79.8°F26.6°C 99% Calm Calm 1.6 mph2.6 kmh 29.93 in1013.5 mb 0.00 in0.0 mm 0.00 in0.0 mm 0.00 in0.0 mm
11:30 PM 79.9°F26.6°C 79.6°F26.4°C 99% Calm Calm 1.6 mph2.6 kmh 29.93 in1013.5 mb 0.00 in0.0 mm 0.00 in0.0 mm 0.00 in0.0 mm
11:45 PM 79.7°F26.5°C 79.5°F26.4°C 99% Calm Calm 2.2 mph3.5 kmh 29.93 in1013.5 mb 0.00 in0.0 mm 0.00 in0.0 mm 0.00 in0.0 mm